C Handy — V7VW8 — position and weather

sailwx.info

Track history (hours):
 
Tides and Currents Weather Stations Pressure Air Temp Water Temp Dewpoint Dewpoint Depression Visibility Wind Speed Wind Dir Waves Ship Positions

C Handy

Last reported at 2017-Aug-12 11:03 UTC. Time now 2017-Sep-22 03:00 UTC.
Position N 23°12' W 112°47'.
Warning: this ship's position is 40 days out of date.

Length 186 m; draft 9.5 m.

Type: Cargo ship. MMSI: 538004231.

Date/timePositionNaut miles runAvg speedWind from/ knotsBaromVisibWave heightAir tempDewpointWater temp
2017-Aug-12 11:03N 23°12' W 112°47'113.5
2017-Aug-12 11:00N 23°13' W 112°47'1013.2
2017-Aug-12 10:13N 23°17' W 112°58'413.4
2017-Aug-12 09:54N 23°18' W 113°02'613.1
2017-Aug-12 09:27N 23°20' W 113°08'1913.1
2017-Aug-12 08:01N 23°27' W 113°27'114.4
2017-Aug-12 07:58N 23°27' W 113°27'713.2
2017-Aug-12 07:24N 23°30' W 113°35'713.3
2017-Aug-12 06:54N 23°33' W 113°42'28712.9
2017-Aug-11 08:39N 26°00' W 118°13'412.9
2017-Aug-11 08:23N 26°02' W 118°16'1913.1
2017-Aug-11 06:55N 26°14' W 118°33'713.3
2017-Aug-11 06:22N 26°18' W 118°40'513.4
2017-Aug-11 06:00N 26°21' W 118°44'2413.2
2017-Aug-11 04:12N 26°35' W 119°06'912.9
2017-Aug-11 03:32N 26°41' W 119°13'112.9
2017-Aug-11 03:30N 26°41' W 119°14'812.8
2017-Aug-11 02:55N 26°45' W 119°20'512.9
2017-Aug-11 02:30N 26°49' W 119°25'712.9
2017-Aug-11 01:58N 26°53' W 119°31'712.9
2017-Aug-11 01:28N 26°57' W 119°37'612.8
2017-Aug-11 01:00N 27°00' W 119°42'812.7
2017-Aug-11 00:21N 27°05' W 119°50'412.4
2017-Aug-11 00:00N 27°08' W 119°54'712.6
2017-Aug-10 23:28N 27°12' W 119°60'712.6
2017-Aug-10 22:54N 27°16' W 120°07'512.7
2017-Aug-10 22:30N 27°18' W 120°11'1012.7
2017-Aug-10 21:41N 27°24' W 120°21'1312.5
2017-Aug-10 20:40N 27°31' W 120°33'212.6
2017-Aug-10 20:30N 27°32' W 120°35'712.6
2017-Aug-10 19:57N 27°36' W 120°42'612.7
2017-Aug-10 19:29N 27°39' W 120°48'712.7
2017-Aug-10 18:58N 27°42' W 120°54'612.8
2017-Aug-10 18:30N 27°46' W 120°60'612.8
2017-Aug-10 18:00N 27°49' W 121°06'1413.1
2017-Aug-10 16:57N 27°56' W 121°19'1713.1
2017-Aug-10 15:41N 28°06' W 121°35'1013.0
2017-Aug-10 14:55N 28°11' W 121°44'613.1
2017-Aug-10 14:29N 28°14' W 121°50'713.2
2017-Aug-10 13:56N 28°18' W 121°56'613.2
2017-Aug-10 13:30N 28°21' W 122°02'913.2
2017-Aug-10 12:49N 28°26' W 122°11'513.0
2017-Aug-10 12:26N 28°28' W 122°15'612.9
2017-Aug-10 12:00N 28°31' W 122°21'1312.8
2017-Aug-10 11:00N 28°38' W 122°33'713.0
2017-Aug-10 10:30N 28°42' W 122°39'613.0
2017-Aug-10 10:00N 28°45' W 122°45'713.1
2017-Aug-10 09:30N 28°49' W 122°52'713.2
2017-Aug-10 09:00N 28°52' W 122°58'713.1
2017-Aug-10 08:30N 28°56' W 123°04'612.9
2017-Aug-10 08:00N 28°59' W 123°11'713.0
2017-Aug-10 07:30N 29°03' W 123°17'713.1
2017-Aug-10 07:00N 29°06' W 123°23'612.8
2017-Aug-10 06:30N 29°10' W 123°29'613.0
2017-Aug-10 06:01N 29°13' W 123°36'813.2
2017-Aug-10 05:25N 29°18' W 123°43'513.0
2017-Aug-10 05:00N 29°21' W 123°48'713.1
2017-Aug-10 04:30N 29°24' W 123°55'713.0
2017-Aug-10 03:59N 29°28' W 124°01'613.0
2017-Aug-10 03:30N 29°31' W 124°07'713.1
2017-Aug-10 02:58N 29°35' W 124°14'613.0
2017-Aug-10 02:30N 29°38' W 124°20'613.1
2017-Aug-10 02:00N 29°42' W 124°26'713.4
2017-Aug-10 01:30N 29°45' W 124°33'713.3
2017-Aug-10 01:00N 29°49' W 124°39'813.3
2017-Aug-10 00:26N 29°53' W 124°46'813.2
2017-Aug-09 23:51N 29°57' W 124°54'1513.2
2017-Aug-09 22:43N 30°05' W 125°09'1413.3
2017-Aug-09 21:40N 30°13' W 125°22'413.2
2017-Aug-09 21:21N 30°15' W 125°26'24813.1
2017-Aug-09 02:22N 32°28' W 129°31'613.1
2017-Aug-09 01:53N 32°32' W 129°37'9113.0
2017-Aug-08 18:51N 33°15' W 131°13'1112.8
2017-Aug-08 18:00N 33°20' W 131°24'5112.7
2017-Aug-08 13:59N 33°44' W 132°18'1212.6
2017-Aug-08 13:00N 33°49' W 132°32'1112.8
2017-Aug-08 12:07N 33°54' W 132°44'2912.8
2017-Aug-08 09:53N 34°07' W 133°14'712.8
2017-Aug-08 09:21N 34°10' W 133°22'712.7
2017-Aug-08 08:49N 34°14' W 133°29'412.7
2017-Aug-08 08:30N 34°16' W 133°33'612.8
2017-Aug-08 08:00N 34°18' W 133°40'1112.8
2017-Aug-08 07:09N 34°23' W 133°52'212.8
2017-Aug-08 06:59N 34°24' W 133°54'712.9
2017-Aug-08 06:28N 34°27' W 134°01'712.8
2017-Aug-08 05:58N 34°30' W 134°08'612.9
2017-Aug-08 05:29N 34°33' W 134°15'712.8
2017-Aug-08 04:54N 34°36' W 134°23'812.7
2017-Aug-08 04:16N 34°40' W 134°32'1512.8
2017-Aug-08 03:07N 34°47' W 134°48'5312.8
2017-Aug-07 22:59N 35°11' W 135°45'1112.6
2017-Aug-07 22:08N 35°16' W 135°57'9512.6
2017-Aug-07 14:38N 35°59' W 137°40'512.8
2017-Aug-07 14:15N 36°01' W 137°45'  
Track history (hours):
 
Tides and Currents Weather Stations Pressure Air Temp Water Temp Dewpoint Dewpoint Depression Visibility Wind Speed Wind Dir Waves Ship Positions

C Handy

Last reported at 2017-Aug-12 11:03 UTC. Time now 2017-Sep-22 03:00 UTC.
Position N 23°12' W 112°47'.
Warning: this ship's position is 40 days out of date.

Length 186 m; draft 9.5 m.

Type: Cargo ship. MMSI: 538004231.

Date/timePositionNaut miles runAvg speedWind from/ knotsBaromVisibWave heightAir tempDewpointWater temp
2017-Aug-12 11:03N 23°12' W 112°47'113.5
2017-Aug-12 11:00N 23°13' W 112°47'1013.2
2017-Aug-12 10:13N 23°17' W 112°58'413.4
2017-Aug-12 09:54N 23°18' W 113°02'613.1
2017-Aug-12 09:27N 23°20' W 113°08'1913.1
2017-Aug-12 08:01N 23°27' W 113°27'114.4
2017-Aug-12 07:58N 23°27' W 113°27'713.2
2017-Aug-12 07:24N 23°30' W 113°35'713.3
2017-Aug-12 06:54N 23°33' W 113°42'28712.9
2017-Aug-11 08:39N 26°00' W 118°13'412.9
2017-Aug-11 08:23N 26°02' W 118°16'1913.1
2017-Aug-11 06:55N 26°14' W 118°33'713.3
2017-Aug-11 06:22N 26°18' W 118°40'513.4
2017-Aug-11 06:00N 26°21' W 118°44'2413.2
2017-Aug-11 04:12N 26°35' W 119°06'912.9
2017-Aug-11 03:32N 26°41' W 119°13'112.9
2017-Aug-11 03:30N 26°41' W 119°14'812.8
2017-Aug-11 02:55N 26°45' W 119°20'512.9
2017-Aug-11 02:30N 26°49' W 119°25'712.9
2017-Aug-11 01:58N 26°53' W 119°31'712.9
2017-Aug-11 01:28N 26°57' W 119°37'612.8
2017-Aug-11 01:00N 27°00' W 119°42'812.7
2017-Aug-11 00:21N 27°05' W 119°50'412.4
2017-Aug-11 00:00N 27°08' W 119°54'712.6
2017-Aug-10 23:28N 27°12' W 119°60'712.6
2017-Aug-10 22:54N 27°16' W 120°07'512.7
2017-Aug-10 22:30N 27°18' W 120°11'1012.7
2017-Aug-10 21:41N 27°24' W 120°21'1312.5
2017-Aug-10 20:40N 27°31' W 120°33'212.6
2017-Aug-10 20:30N 27°32' W 120°35'712.6
2017-Aug-10 19:57N 27°36' W 120°42'612.7
2017-Aug-10 19:29N 27°39' W 120°48'712.7
2017-Aug-10 18:58N 27°42' W 120°54'612.8
2017-Aug-10 18:30N 27°46' W 120°60'612.8
2017-Aug-10 18:00N 27°49' W 121°06'1413.1
2017-Aug-10 16:57N 27°56' W 121°19'1713.1
2017-Aug-10 15:41N 28°06' W 121°35'1013.0
2017-Aug-10 14:55N 28°11' W 121°44'613.1
2017-Aug-10 14:29N 28°14' W 121°50'713.2
2017-Aug-10 13:56N 28°18' W 121°56'613.2
2017-Aug-10 13:30N 28°21' W 122°02'913.2
2017-Aug-10 12:49N 28°26' W 122°11'513.0
2017-Aug-10 12:26N 28°28' W 122°15'612.9
2017-Aug-10 12:00N 28°31' W 122°21'1312.8
2017-Aug-10 11:00N 28°38' W 122°33'713.0
2017-Aug-10 10:30N 28°42' W 122°39'613.0
2017-Aug-10 10:00N 28°45' W 122°45'713.1
2017-Aug-10 09:30N 28°49' W 122°52'713.2
2017-Aug-10 09:00N 28°52' W 122°58'713.1
2017-Aug-10 08:30N 28°56' W 123°04'612.9
2017-Aug-10 08:00N 28°59' W 123°11'713.0
2017-Aug-10 07:30N 29°03' W 123°17'713.1
2017-Aug-10 07:00N 29°06' W 123°23'612.8
2017-Aug-10 06:30N 29°10' W 123°29'613.0
2017-Aug-10 06:01N 29°13' W 123°36'813.2
2017-Aug-10 05:25N 29°18' W 123°43'513.0
2017-Aug-10 05:00N 29°21' W 123°48'713.1
2017-Aug-10 04:30N 29°24' W 123°55'713.0
2017-Aug-10 03:59N 29°28' W 124°01'613.0
2017-Aug-10 03:30N 29°31' W 124°07'713.1
2017-Aug-10 02:58N 29°35' W 124°14'613.0
2017-Aug-10 02:30N 29°38' W 124°20'613.1
2017-Aug-10 02:00N 29°42' W 124°26'713.4
2017-Aug-10 01:30N 29°45' W 124°33'713.3
2017-Aug-10 01:00N 29°49' W 124°39'813.3
2017-Aug-10 00:26N 29°53' W 124°46'813.2
2017-Aug-09 23:51N 29°57' W 124°54'1513.2
2017-Aug-09 22:43N 30°05' W 125°09'1413.3
2017-Aug-09 21:40N 30°13' W 125°22'413.2
2017-Aug-09 21:21N 30°15' W 125°26'24813.1
2017-Aug-09 02:22N 32°28' W 129°31'613.1
2017-Aug-09 01:53N 32°32' W 129°37'9113.0
2017-Aug-08 18:51N 33°15' W 131°13'1112.8
2017-Aug-08 18:00N 33°20' W 131°24'5112.7
2017-Aug-08 13:59N 33°44' W 132°18'1212.6
2017-Aug-08 13:00N 33°49' W 132°32'1112.8
2017-Aug-08 12:07N 33°54' W 132°44'2912.8
2017-Aug-08 09:53N 34°07' W 133°14'712.8
2017-Aug-08 09:21N 34°10' W 133°22'712.7
2017-Aug-08 08:49N 34°14' W 133°29'412.7
2017-Aug-08 08:30N 34°16' W 133°33'612.8
2017-Aug-08 08:00N 34°18' W 133°40'1112.8
2017-Aug-08 07:09N 34°23' W 133°52'212.8
2017-Aug-08 06:59N 34°24' W 133°54'712.9
2017-Aug-08 06:28N 34°27' W 134°01'712.8
2017-Aug-08 05:58N 34°30' W 134°08'612.9
2017-Aug-08 05:29N 34°33' W 134°15'712.8
2017-Aug-08 04:54N 34°36' W 134°23'812.7
2017-Aug-08 04:16N 34°40' W 134°32'1512.8
2017-Aug-08 03:07N 34°47' W 134°48'5312.8
2017-Aug-07 22:59N 35°11' W 135°45'1112.6
2017-Aug-07 22:08N 35°16' W 135°57'9512.6
2017-Aug-07 14:38N 35°59' W 137°40'512.8
2017-Aug-07 14:15N 36°01' W 137°45'  

Dump ship's entire track history